Observations at @wa for Latest


KALW 231253Z 17010KT 10SM OVC070 11/04 A3008 RMK AO2 SLP183 T01060044=
KAWO 231256Z AUTO 00000KT 10SM OVC025 08/07 A3014 RMK AO2 SLP212 T00830067=
KAWO 231326Z AUTO 17003KT 10SM SCT023 08/06 A3015 RMK AO2=
KBFI 231253Z 00000KT 10SM CLR 08/06 A3014 RMK AO2 SLP205 T00780061 $=
KBFI 231253Z 00000KT 10SM CLR 08/06 A3014 RMK AO2 SLP205 T00780061 /=
KBLI 231253Z AUTO 16004KT 10SM OVC050 08/06 A3013 RMK AO2 RAE02 SLP209 P0000
 T00830061=
KCLM 231253Z AUTO 23006KT 10SM BKN021 OVC029 07/04 A3013 RMK AO2 SLP204
 T00670039=
KEAT 231255Z AUTO 27008KT 10SM CLR 06/02 A3003 RMK AO2 SLP172 T00610017=
KELN 231253Z AUTO 31014KT 10SM CLR 07/02 A3004 RMK AO2 SLP175 T00670017=
KEPH 231253Z AUTO 35007KT 10SM CLR 05/03 A3002 RMK AO2 SLP170 T00500028=
KFHR 231253Z AUTO 00000KT 8SM OVC044 08/07 A3014 RMK AO2 SLP206 T00780067=
KGEG 231253Z 17006KT 10SM BKN060 BKN130 BKN150 04/02 A3005 RMK AO2 SLP183
 T00440017=
KGRF 231158Z AUTO 00000KT 10SM CLR 04/04 A3012 RMK AO2 SLP205 T00380038 10096
 20032 52004 $=
KHQM 231253Z AUTO 03005KT 7SM SCT002 OVC090 07/07 A3012 RMK AO2 SLP202
 T00670067=
KKLS 231256Z AUTO 00000KT 6SM -RA BR BKN008 OVC012 07/07 A3015 RMK AO2 RAB11
 SLP215 P0000 T00670067=
KKLS 231310Z AUTO 14003KT 5SM RA BR OVC010 07/07 A3015 RMK AO2 P0001=
KMWH 231252Z 00000KT 10SM CLR 06/02 A3003 RMK AO2 SLP171 T00610022=
KNOW 231250Z AUTO 00000KT 10SM SCT031 BKN041 OVC046 08/06 A3013 RMK AO2
 T00820061=
KNOW 231310Z AUTO 00000KT 10SM OVC044 08/06 A3014 RMK AO2 T00790058=
KNUW 231256Z 17005KT 10SM BKN015 BKN037 OVC060 11/06 A3017 RMK AO2 SLP215
 T01060061 $=
KOLM 231254Z AUTO 00000KT 1/2SM FG VV002 03/02 A3014 RMK AO2 SLP207 T00280022=
KOLM 231315Z AUTO 17003KT 1/4SM FG VV002 02/02 A3014 RMK AO2 T00220022=
KOMK 231253Z AUTO 00000KT 10SM CLR 03/01 A3004 RMK AO2 SLP177 T00280006=
KORS 231255Z AUTO 00000KT 9SM BKN045 OVC055 08/08 A3012 RMK AO2=
KORS 231315Z AUTO VRB03KT 9SM BKN044 OVC055 08/08 A3013 RMK AO2=
KPAE 231253Z 00000KT 10SM CLR 07/06 A3013 RMK AO2 SLP206 T00670056=
KPSC 231253Z AUTO 22003KT 10SM BKN100 OVC120 09/04 A3007 RMK AO2 SLP183
 T00940044=
KPUW 231253Z AUTO 00000KT 10SM BKN055 06/04 A3009 RMK AO2 SLP194 T00560039=
KPWT 231256Z AUTO 00000KT 1/4SM FG OVC002 06/06 A3013 RMK AO2 SLP223 T00560056=
KRNT 231253Z AUTO 00000KT 10SM CLR 08/06 A3014 RMK AO2 SLP211 T00780061=
KSEA 231253Z 12003KT 10SM OVC230 08/05 A3013 RMK AO2 SLP211 T00830050=
KSFF 231253Z 02003KT 10SM FEW060 FEW120 06/02 A3007 RMK AO2 SLP183 T00610022=
KSHN 231253Z AUTO 00000KT 8SM FEW001 FEW006 OVC029 05/04 A3011 RMK AO2 SLP200
 T00500039=
KSHN 231308Z AUTO 00000KT 5SM BR SCT003 OVC031 05/04 A3012 RMK AO2 T00500039=
KSHN 231312Z AUTO 00000KT 1 3/4SM BR SCT005 OVC031 05/03 A3012 RMK AO2
 T00500033=
KSHN 231315Z AUTO 00000KT 3/4SM BR BKN003 OVC031 05/03 A3012 RMK AO2 T00500033=
KSHN 231253Z AUTO 00000KT 8SM FEW001 FEW006 OVC029 05/04 A3011 RMK AO2 SLP200
 T00500039=
KSKA 231158Z 16005KT 10SM SCT060 BKN150 05/05 A3002 RMK AO2A SLP174 60000
 T00470047 10058 20036 52007 $=
KSKA 231030Z 18010KT 10SM OVC100 05/05 A3002 RMK AO2A RAE30 SLP174 $=
KSMP 231256Z AUTO VRB03KT 1/2SM FG VV001 01/00 A3006 RMK AO2 SLP190 T00110000=
KTCM 231258Z AUTO 00000KT 1/2SM R16/2400V3500FT FG FEW050 03/03 A3014 RMK AO2
 VIS 1/2V1 1/4 SLP212 T00280028 FZRANO $=
KTCM 231323Z AUTO 08003KT 1 1/8SM R16/6000FT BR SCT050 03/03 A3014 RMK AO2 VIS
 3/8V1 1/8 SLP212 FZRANO $=
KTIW 231253Z AUTO 00000KT 10SM CLR 06/05 A3013 RMK AO2 SLP205 T00610050=
KUIL 231253Z AUTO 00000KT 10SM CLR 05/04 A3011 RMK AO2 SLP198 T00500044=
KVUO 231253Z AUTO A3014 RMK AO2 SLP208 PWINO FZRANO $=
KYKM 231253Z 28004KT 10SM CLR 02/M01 A3007 RMK AO2 SLP187 T00171006=